createdAt,value
2017-08-01T00:00:17.410Z,74.00
2017-08-01T00:02:46.408Z,73.40
2017-08-01T00:05:15.349Z,74.10
2017-08-01T00:07:44.312Z,74.00
2017-08-01T00:10:13.252Z,73.00
2017-08-01T00:12:42.989Z,73.00
2017-08-01T00:15:11.937Z,73.00
2017-08-01T00:17:40.899Z,73.50
2017-08-01T00:20:09.875Z,73.00
2017-08-01T00:22:38.822Z,73.80
2017-08-01T00:25:08.555Z,74.60
2017-08-01T00:27:37.589Z,74.60
2017-08-01T00:30:06.524Z,74.40
2017-08-01T00:32:35.499Z,73.80
2017-08-01T00:35:05.239Z,74.40
2017-08-01T00:37:34.193Z,74.30
2017-08-01T00:40:03.148Z,74.00
2017-08-01T00:42:32.129Z,73.90
2017-08-01T00:45:01.076Z,74.00
2017-08-01T00:47:30.020Z,73.70
2017-08-01T00:49:59.088Z,74.60
2017-08-01T00:52:28.027Z,74.00
2017-08-01T00:54:56.988Z,73.90
2017-08-01T00:57:25.974Z,74.60
2017-08-01T00:59:54.994Z,73.90
2017-08-01T01:02:23.939Z,73.30
2017-08-01T01:04:52.911Z,73.50
2017-08-01T01:07:22.615Z,74.50
2017-08-01T01:09:52.365Z,74.90
2017-08-01T01:12:21.471Z,74.20
2017-08-01T01:14:50.419Z,74.90
2017-08-01T01:17:19.905Z,74.90
2017-08-01T01:19:48.856Z,74.00
2017-08-01T01:22:17.883Z,74.30
2017-08-01T01:24:46.826Z,75.00
2017-08-01T01:27:15.808Z,73.70
2017-08-01T01:29:44.770Z,74.40
2017-08-01T01:32:13.712Z,74.60
2017-08-01T01:34:42.767Z,74.90
2017-08-01T01:37:11.697Z,75.20
2017-08-01T01:39:40.826Z,75.40
2017-08-01T01:42:09.856Z,75.60
2017-08-01T01:44:40.152Z,75.80
2017-08-01T01:47:09.161Z,75.70
2017-08-01T01:49:38.905Z,75.40
2017-08-01T01:52:07.876Z,75.30
2017-08-01T01:54:37.225Z,74.60
2017-08-01T01:57:06.180Z,74.80
2017-08-01T01:59:35.120Z,74.90
2017-08-01T02:02:04.244Z,74.50
2017-08-01T02:04:33.188Z,74.10
2017-08-01T02:07:02.137Z,74.80
2017-08-01T02:09:31.126Z,74.50
2017-08-01T02:12:00.068Z,73.70
2017-08-01T02:14:29.034Z,74.60
2017-08-01T02:16:58.094Z,74.60
2017-08-01T02:19:27.049Z,74.50
2017-08-01T02:21:56.046Z,74.20
2017-08-01T02:24:24.991Z,73.60
2017-08-01T02:26:53.935Z,74.70
2017-08-01T02:29:23.817Z,74.50
2017-08-01T02:31:52.852Z,74.40
2017-08-01T02:34:21.777Z,74.80
2017-08-01T02:36:50.764Z,75.40
2017-08-01T02:39:20.190Z,75.20
2017-08-01T02:41:49.167Z,75.20
2017-08-01T02:44:18.241Z,74.80
2017-08-01T02:46:47.773Z,75.60
2017-08-01T02:49:16.730Z,75.60
2017-08-01T02:51:45.690Z,74.70
2017-08-01T02:54:14.648Z,74.70
2017-08-01T02:56:43.616Z,75.50
2017-08-01T02:59:12.645Z,75.50
2017-08-01T03:01:41.611Z,75.50
2017-08-01T03:04:11.132Z,76.00
2017-08-01T03:06:40.464Z,75.90
2017-08-01T03:09:09.450Z,76.00
2017-08-01T03:11:38.397Z,75.40
2017-08-01T03:14:07.390Z,76.00
2017-08-01T03:16:37.288Z,75.40
2017-08-01T03:19:07.010Z,74.80
2017-08-01T03:21:36.238Z,74.60
2017-08-01T03:24:05.168Z,75.10
2017-08-01T03:26:34.127Z,74.90
2017-08-01T03:29:03.130Z,75.00
2017-08-01T03:31:32.085Z,74.50
2017-08-01T03:34:01.178Z,75.30
2017-08-01T03:36:30.170Z,74.90
2017-08-01T03:38:59.114Z,75.00
2017-08-01T03:41:28.057Z,75.60
2017-08-01T03:43:58.114Z,75.70
2017-08-01T03:46:27.067Z,75.70
2017-08-01T03:48:56.023Z,75.80
2017-08-01T03:51:24.979Z,75.50
2017-08-01T03:53:53.944Z,75.20
2017-08-01T03:56:23.132Z,75.30
2017-08-01T03:58:52.104Z,75.60
2017-08-01T04:01:21.826Z,76.60
2017-08-01T04:03:51.165Z,76.60
2017-08-01T04:06:20.108Z,76.40
2017-08-01T04:08:49.836Z,75.90
2017-08-01T04:11:18.815Z,75.80
2017-08-01T04:13:48.572Z,75.80
2017-08-01T04:16:17.515Z,75.80
2017-08-01T04:18:46.503Z,75.30
2017-08-01T04:21:15.897Z,73.10
2017-08-01T04:23:45.652Z,74.90
2017-08-01T04:26:14.584Z,74.90
2017-08-01T04:28:43.533Z,74.80
2017-08-01T04:31:12.518Z,74.40
2017-08-01T04:33:41.482Z,75.20
2017-08-01T04:36:11.199Z,74.30
2017-08-01T04:38:40.189Z,74.30
2017-08-01T04:41:09.956Z,75.50
2017-08-01T04:43:38.917Z,75.40
2017-08-01T04:46:07.896Z,74.70
2017-08-01T04:48:36.968Z,75.00
2017-08-01T04:51:05.918Z,73.90
2017-08-01T04:53:34.888Z,74.60
2017-08-01T04:56:03.853Z,73.90
2017-08-01T04:58:33.244Z,74.70
2017-08-01T05:01:02.953Z,75.20
2017-08-01T05:03:32.688Z,74.70
2017-08-01T05:06:01.659Z,74.60
2017-08-01T05:08:30.612Z,74.80
2017-08-01T05:11:02.669Z,75.00
2017-08-01T05:13:31.615Z,74.60
2017-08-01T05:16:00.577Z,73.40
2017-08-01T05:18:29.553Z,73.30
2017-08-01T05:20:58.521Z,73.80
2017-08-01T05:23:27.523Z,73.10
2017-08-01T05:25:56.486Z,72.80
2017-08-01T05:28:25.667Z,72.40
2017-08-01T05:30:54.864Z,70.50
2017-08-01T05:33:24.584Z,71.60
2017-08-01T05:35:53.574Z,71.50
2017-08-01T05:38:23.826Z,71.50
2017-08-01T05:40:52.874Z,71.90
2017-08-01T05:43:21.817Z,72.20
2017-08-01T05:45:50.817Z,71.30
2017-08-01T05:48:20.199Z,70.90
2017-08-01T05:50:49.133Z,71.20
2017-08-01T05:53:18.120Z,71.60
2017-08-01T05:55:47.082Z,71.00
2017-08-01T05:58:16.332Z,69.90
2017-08-01T06:00:46.069Z,70.70
2017-08-01T06:03:15.016Z,70.50
2017-08-01T06:05:44.412Z,70.70
2017-08-01T06:08:13.384Z,70.30
2017-08-01T06:10:42.396Z,70.20
2017-08-01T06:13:11.363Z,71.70
2017-08-01T06:15:40.369Z,69.30
2017-08-01T06:18:09.299Z,69.40
2017-08-01T06:20:39.016Z,67.90
2017-08-01T06:23:08.785Z,68.10
2017-08-01T06:25:37.751Z,68.10
2017-08-01T06:28:06.974Z,68.20
2017-08-01T06:30:35.995Z,67.60
2017-08-01T06:33:06.048Z,67.40
2017-08-01T06:35:35.015Z,67.30
2017-08-01T06:38:04.759Z,68.90
2017-08-01T06:40:34.293Z,68.90
2017-08-01T06:43:03.277Z,67.40
2017-08-01T06:45:32.215Z,65.20
2017-08-01T06:48:01.178Z,66.20
2017-08-01T06:50:30.132Z,66.10
2017-08-01T06:52:59.109Z,65.70
2017-08-01T06:55:28.047Z,64.10
2017-08-01T06:57:57.006Z,63.50
2017-08-01T07:00:26.137Z,62.90
2017-08-01T07:02:55.112Z,61.90
2017-08-01T07:05:24.054Z,62.90
2017-08-01T07:07:53.045Z,64.50
2017-08-01T07:10:22.040Z,63.30
2017-08-01T07:12:51.018Z,61.90
2017-08-01T07:15:20.735Z,62.60
2017-08-01T07:17:49.715Z,62.50
2017-08-01T07:20:19.463Z,63.10
2017-08-01T07:22:48.421Z,62.10
2017-08-01T07:25:18.150Z,61.20
2017-08-01T07:27:47.128Z,60.50
2017-08-01T07:30:16.075Z,61.20
2017-08-01T07:32:45.077Z,61.10
2017-08-01T07:35:14.055Z,60.90
2017-08-01T07:37:43.013Z,59.70
2017-08-01T07:40:12.219Z,59.80
2017-08-01T07:42:41.182Z,60.60
2017-08-01T07:45:10.934Z,59.80
2017-08-01T07:47:40.000Z,59.70
2017-08-01T07:50:08.979Z,59.00
2017-08-01T07:52:38.713Z,57.90
2017-08-01T07:55:07.701Z,57.80
2017-08-01T07:57:36.653Z,58.60
2017-08-01T08:00:05.603Z,58.70
2017-08-01T08:02:35.599Z,58.20
2017-08-01T08:05:04.546Z,58.20
2017-08-01T08:07:33.535Z,57.70
2017-08-01T08:10:02.678Z,58.70
2017-08-01T08:12:31.628Z,58.80
2017-08-01T08:15:00.580Z,58.90
2017-08-01T08:17:29.557Z,57.50
2017-08-01T08:19:58.537Z,58.30
2017-08-01T08:22:27.493Z,56.60
2017-08-01T08:24:56.478Z,55.70
2017-08-01T08:27:25.446Z,57.40
2017-08-01T08:29:54.422Z,57.80
2017-08-01T08:32:23.583Z,56.80
2017-08-01T08:34:53.324Z,55.30
2017-08-01T08:37:22.289Z,54.70
2017-08-01T08:39:52.042Z,56.40
2017-08-01T08:42:21.775Z,56.30
2017-08-01T08:44:51.022Z,55.50
2017-08-01T08:47:19.982Z,54.80
2017-08-01T08:49:48.949Z,53.20
2017-08-01T08:52:17.977Z,54.10
2017-08-01T08:54:47.146Z,52.70
2017-08-01T08:57:16.103Z,55.20
2017-08-01T08:59:45.095Z,53.20
2017-08-01T09:02:14.137Z,52.70
2017-08-01T09:04:43.266Z,53.80
2017-08-01T09:07:12.934Z,54.20
2017-08-01T09:09:42.873Z,54.90
2017-08-01T09:12:11.845Z,51.70
2017-08-01T09:14:40.826Z,52.90
2017-08-01T09:17:09.776Z,52.80
2017-08-01T09:19:38.732Z,52.80
2017-08-01T09:22:07.724Z,50.30
2017-08-01T09:24:37.138Z,51.00
2017-08-01T09:27:06.889Z,51.70
2017-08-01T09:29:35.837Z,49.30
2017-08-01T09:32:05.592Z,49.90
2017-08-01T09:34:34.540Z,49.90
2017-08-01T09:37:04.281Z,53.30
2017-08-01T09:39:33.261Z,53.30
2017-08-01T09:42:02.240Z,52.30
2017-08-01T09:44:31.181Z,50.80
2017-08-01T09:47:00.458Z,50.00
2017-08-01T09:49:29.405Z,51.70
2017-08-01T09:51:58.383Z,50.60
2017-08-01T09:54:27.340Z,51.90
2017-08-01T09:56:56.275Z,54.00
2017-08-01T09:59:25.254Z,55.00
2017-08-01T10:01:54.417Z,51.50
2017-08-01T10:04:23.386Z,52.00
2017-08-01T10:06:52.329Z,53.70
2017-08-01T10:09:21.291Z,49.40
2017-08-01T10:11:50.279Z,51.20
2017-08-01T10:14:19.272Z,50.40
2017-08-01T10:16:48.247Z,51.60
2017-08-01T10:19:17.231Z,52.60
2017-08-01T10:21:46.198Z,49.20
2017-08-01T10:24:15.163Z,51.10
2017-08-01T10:26:44.195Z,52.90
2017-08-01T10:29:13.934Z,49.50
2017-08-01T10:31:42.912Z,49.40
2017-08-01T10:34:11.897Z,51.00
2017-08-01T10:36:40.858Z,50.80
2017-08-01T10:39:09.801Z,51.10
2017-08-01T10:41:38.775Z,49.10
2017-08-01T10:44:07.736Z,49.30
2017-08-01T10:46:36.741Z,51.00
2017-08-01T10:49:06.464Z,49.50
2017-08-01T10:51:35.405Z,49.30
2017-08-01T10:54:04.376Z,51.50
2017-08-01T10:56:33.336Z,51.20
2017-08-01T10:59:03.178Z,51.40
2017-08-01T11:01:32.131Z,51.40
2017-08-01T11:04:01.867Z,49.70
2017-08-01T11:06:30.813Z,49.60
2017-08-01T11:08:59.833Z,50.10
2017-08-01T11:11:28.797Z,50.40
2017-08-01T11:13:57.767Z,49.10
2017-08-01T11:16:26.729Z,50.00
2017-08-01T11:18:55.735Z,49.90
2017-08-01T11:21:24.719Z,50.50
2017-08-01T11:23:53.709Z,50.50
2017-08-01T11:26:22.673Z,48.80
2017-08-01T11:28:53.245Z,50.00
2017-08-01T11:31:22.189Z,49.90
2017-08-01T11:33:51.168Z,50.10
2017-08-01T11:36:20.124Z,48.60
2017-08-01T11:38:49.114Z,46.10
2017-08-01T11:41:18.267Z,47.90
2017-08-01T11:43:47.271Z,46.80
2017-08-01T11:46:16.578Z,45.10
2017-08-01T11:48:45.667Z,46.00
2017-08-01T11:51:14.616Z,46.30
2017-08-01T11:53:43.596Z,47.10
2017-08-01T11:56:12.564Z,48.20
2017-08-01T11:58:41.652Z,50.90
2017-08-01T12:01:10.670Z,50.50
2017-08-01T12:03:41.072Z,52.00
2017-08-01T12:06:10.057Z,52.00
2017-08-01T12:08:39.000Z,54.10
2017-08-01T12:11:07.963Z,54.40
2017-08-01T12:13:37.012Z,54.30
2017-08-01T12:16:05.981Z,54.60
2017-08-01T12:18:34.926Z,54.70
2017-08-01T12:21:05.627Z,55.50
2017-08-01T12:23:35.353Z,55.30
2017-08-01T12:26:04.321Z,55.30
2017-08-01T12:28:33.354Z,54.70
2017-08-01T12:31:02.652Z,55.10
2017-08-01T12:33:31.686Z,55.60
2017-08-01T12:36:00.712Z,55.40
2017-08-01T12:38:29.652Z,56.20
2017-08-01T12:40:58.671Z,55.20
2017-08-01T12:43:27.627Z,53.20
2017-08-01T12:45:56.594Z,53.50
2017-08-01T12:48:25.556Z,52.40
2017-08-01T12:50:54.504Z,53.20
2017-08-01T12:53:23.895Z,54.10
2017-08-01T12:55:52.839Z,52.70
2017-08-01T12:58:21.810Z,52.40
2017-08-01T13:00:50.792Z,54.30
2017-08-01T13:03:19.934Z,54.10
2017-08-01T13:05:49.685Z,53.90
2017-08-01T13:08:18.648Z,53.90
2017-08-01T13:10:47.594Z,54.80
2017-08-01T13:13:16.613Z,52.50
2017-08-01T13:15:45.579Z,53.20
2017-08-01T13:18:14.578Z,52.50
2017-08-01T13:20:43.773Z,53.30
2017-08-01T13:23:12.755Z,53.10
2017-08-01T13:25:42.214Z,55.20
2017-08-01T13:28:11.210Z,53.90
2017-08-01T13:30:40.406Z,53.70
2017-08-01T13:33:09.353Z,54.40
2017-08-01T13:35:38.318Z,54.60
2017-08-01T13:38:07.419Z,54.20
2017-08-01T13:40:36.386Z,54.50
2017-08-01T13:43:05.816Z,53.90
2017-08-01T13:45:34.784Z,54.20
2017-08-01T13:48:03.772Z,53.90
2017-08-01T13:50:32.727Z,54.70
2017-08-01T13:53:01.699Z,53.30
2017-08-01T13:55:30.714Z,53.50
2017-08-01T13:58:00.303Z,52.90
2017-08-01T14:00:29.852Z,54.10
2017-08-01T14:02:58.820Z,52.60
2017-08-01T14:05:28.554Z,53.40
2017-08-01T14:07:57.525Z,53.40
2017-08-01T14:10:27.456Z,53.50
2017-08-01T14:12:56.433Z,51.40
2017-08-01T14:15:25.706Z,53.30
2017-08-01T14:17:54.665Z,52.50
2017-08-01T14:20:23.913Z,53.20
2017-08-01T14:22:55.433Z,50.90
2017-08-01T14:25:24.467Z,51.00
2017-08-01T14:27:53.570Z,52.20
2017-08-01T14:30:22.601Z,51.00
2017-08-01T14:32:51.574Z,50.80
2017-08-01T14:35:20.550Z,47.70
2017-08-01T14:37:49.583Z,47.30
2017-08-01T14:40:18.534Z,48.80
2017-08-01T14:42:47.520Z,47.50
2017-08-01T14:45:16.605Z,50.90
2017-08-01T14:47:45.574Z,49.90
2017-08-01T14:50:15.049Z,49.80
2017-08-01T14:52:44.062Z,50.80
2017-08-01T14:55:13.041Z,51.70
2017-08-01T14:57:42.018Z,52.00
2017-08-01T15:00:11.025Z,51.90
2017-08-01T15:02:40.191Z,50.60
2017-08-01T15:05:09.144Z,50.90
2017-08-01T15:07:38.242Z,52.40
2017-08-01T15:10:07.478Z,52.90
2017-08-01T15:12:36.597Z,54.10
2017-08-01T15:15:05.622Z,52.90
2017-08-01T15:17:35.352Z,52.50
2017-08-01T15:20:05.153Z,50.70
2017-08-01T15:22:34.127Z,50.60
2017-08-01T15:25:03.084Z,52.10
2017-08-01T15:27:32.072Z,51.60
2017-08-01T15:30:01.137Z,52.00
2017-08-01T15:32:30.945Z,51.40
2017-08-01T15:34:59.965Z,51.40
2017-08-01T15:37:28.949Z,51.60
2017-08-01T15:39:57.979Z,51.60
2017-08-01T15:42:26.941Z,52.40
2017-08-01T15:44:55.898Z,53.50
2017-08-01T15:47:25.052Z,53.50
2017-08-01T15:49:55.130Z,52.70
2017-08-01T15:52:24.257Z,54.30
2017-08-01T15:54:53.289Z,53.00
2017-08-01T15:57:22.238Z,53.70
2017-08-01T15:59:51.256Z,55.10
2017-08-01T16:02:20.252Z,53.20
2017-08-01T16:04:49.226Z,54.70
2017-08-01T16:07:18.190Z,55.00
2017-08-01T16:09:47.189Z,54.40
2017-08-01T16:12:17.037Z,55.80
2017-08-01T16:14:46.003Z,55.80
2017-08-01T16:17:14.957Z,57.20
2017-08-01T16:19:44.191Z,56.30
2017-08-01T16:22:13.165Z,56.20
2017-08-01T16:24:42.139Z,55.80
2017-08-01T16:27:11.149Z,57.00
2017-08-01T16:29:40.108Z,56.50
2017-08-01T16:32:09.124Z,55.60
2017-08-01T16:34:38.073Z,56.50
2017-08-01T16:37:07.036Z,56.50
2017-08-01T16:39:35.999Z,56.70
2017-08-01T16:42:05.242Z,56.40
2017-08-01T16:44:34.239Z,56.90
2017-08-01T16:47:03.205Z,56.60
2017-08-01T16:49:32.178Z,56.00
2017-08-01T16:52:01.164Z,56.30
2017-08-01T16:54:30.172Z,56.80
2017-08-01T16:56:59.161Z,56.30
2017-08-01T16:59:28.104Z,55.80
2017-08-01T17:01:57.073Z,54.60
2017-08-01T17:04:26.279Z,55.40
2017-08-01T17:06:55.250Z,55.20
2017-08-01T17:09:24.294Z,54.70
2017-08-01T17:11:55.462Z,55.10
2017-08-01T17:14:24.463Z,56.30
2017-08-01T17:16:54.193Z,56.90
2017-08-01T17:19:23.167Z,56.80
2017-08-01T17:21:52.158Z,56.70
2017-08-01T17:24:21.105Z,56.20
2017-08-01T17:26:50.077Z,56.10
2017-08-01T17:29:19.150Z,56.20
2017-08-01T17:31:48.137Z,55.90
2017-08-01T17:34:17.102Z,55.60
2017-08-01T17:36:46.857Z,55.60
2017-08-01T17:39:15.821Z,54.90
2017-08-01T17:41:44.764Z,54.90
2017-08-01T17:44:13.752Z,55.90
2017-08-01T17:46:42.969Z,56.70
2017-08-01T17:49:11.954Z,56.90
2017-08-01T17:51:40.932Z,57.70
2017-08-01T17:54:10.110Z,57.60
2017-08-01T17:56:39.106Z,58.90
2017-08-01T17:59:08.071Z,59.90
2017-08-01T18:01:37.100Z,59.80
2017-08-01T18:04:06.052Z,59.80
2017-08-01T18:06:35.038Z,60.90
2017-08-01T18:09:04.182Z,61.20
2017-08-01T18:11:33.129Z,61.60
2017-08-01T18:14:02.130Z,60.70
2017-08-01T18:16:31.077Z,61.20
2017-08-01T18:19:00.092Z,59.90
2017-08-01T18:21:29.865Z,59.50
2017-08-01T18:23:58.845Z,59.50
2017-08-01T18:26:27.830Z,59.20
2017-08-01T18:28:56.776Z,59.70
2017-08-01T18:31:25.984Z,61.10
2017-08-01T18:33:54.948Z,62.70
2017-08-01T18:36:23.913Z,62.70
2017-08-01T18:38:52.877Z,62.20
2017-08-01T18:41:21.867Z,62.40
2017-08-01T18:43:50.829Z,63.40
2017-08-01T18:46:19.866Z,63.90
2017-08-01T18:48:48.816Z,64.20
2017-08-01T18:51:18.580Z,64.10
2017-08-01T18:53:47.536Z,64.00
2017-08-01T18:56:16.510Z,64.20
2017-08-01T18:58:45.581Z,64.80
2017-08-01T19:01:14.682Z,65.90
2017-08-01T19:03:43.662Z,66.40
2017-08-01T19:06:12.752Z,66.50
2017-08-01T19:08:42.118Z,67.20
2017-08-01T19:11:11.133Z,68.30
2017-08-01T19:13:40.096Z,69.10
2017-08-01T19:16:09.079Z,69.80
2017-08-01T19:18:38.056Z,70.20
2017-08-01T19:21:07.070Z,69.90
2017-08-01T19:23:36.072Z,70.60
2017-08-01T19:26:05.065Z,70.30
2017-08-01T19:28:34.054Z,69.30
2017-08-01T19:31:03.130Z,67.70
2017-08-01T19:33:32.871Z,67.60
2017-08-01T19:36:01.870Z,67.50
2017-08-01T19:38:30.842Z,67.10
2017-08-01T19:40:59.848Z,67.20
2017-08-01T19:43:28.871Z,67.90
2017-08-01T19:45:57.849Z,68.70
2017-08-01T19:48:26.843Z,68.60
2017-08-01T19:50:56.025Z,69.60
2017-08-01T19:53:25.079Z,70.20
2017-08-01T19:55:54.037Z,70.00
2017-08-01T19:58:23.064Z,70.70
2017-08-01T20:00:54.022Z,70.80
2017-08-01T20:03:23.044Z,71.50
2017-08-01T20:05:52.969Z,72.20
2017-08-01T20:08:22.046Z,71.40
2017-08-01T20:10:51.045Z,71.40
2017-08-01T20:13:20.038Z,71.60
2017-08-01T20:15:49.011Z,71.80
2017-08-01T20:18:18.003Z,72.30
2017-08-01T20:20:47.100Z,72.80
2017-08-01T20:23:16.110Z,72.30
2017-08-01T20:25:45.086Z,72.90
2017-08-01T20:28:14.327Z,73.10
2017-08-01T20:30:43.655Z,73.30
2017-08-01T20:33:13.439Z,72.20
2017-08-01T20:35:42.426Z,72.20
2017-08-01T20:38:11.410Z,72.40
2017-08-01T20:40:40.428Z,73.10
2017-08-01T20:43:09.416Z,73.30
2017-08-01T20:45:38.385Z,73.60
2017-08-01T20:48:07.379Z,74.20
2017-08-01T20:50:36.345Z,75.30
2017-08-01T20:53:06.479Z,75.90
2017-08-01T20:55:35.458Z,75.60
2017-08-01T20:58:04.407Z,75.80
2017-08-01T21:00:33.448Z,74.70
2017-08-01T21:03:02.459Z,74.50
2017-08-01T21:05:31.531Z,74.40
2017-08-01T21:08:00.521Z,73.90
2017-08-01T21:10:29.480Z,73.30
2017-08-01T21:12:59.238Z,74.70
2017-08-01T21:15:28.234Z,74.70
2017-08-01T21:17:57.190Z,75.20
2017-08-01T21:20:26.188Z,75.20
2017-08-01T21:22:55.198Z,75.20
2017-08-01T21:25:24.201Z,74.80
2017-08-01T21:27:53.154Z,75.10
2017-08-01T21:30:22.142Z,75.60
2017-08-01T21:32:51.888Z,76.10
2017-08-01T21:35:20.857Z,76.10
2017-08-01T21:37:52.384Z,75.70
2017-08-01T21:40:21.978Z,75.90
2017-08-01T21:42:50.907Z,76.10
2017-08-01T21:45:19.889Z,75.80
2017-08-01T21:47:48.852Z,76.20
2017-08-01T21:50:17.842Z,75.80
2017-08-01T21:52:46.780Z,76.10
2017-08-01T21:55:15.841Z,76.10
2017-08-01T21:57:44.811Z,76.40
2017-08-01T22:00:13.821Z,76.20
2017-08-01T22:02:43.848Z,74.70
2017-08-01T22:05:13.612Z,74.60
2017-08-01T22:07:42.565Z,74.60
2017-08-01T22:10:11.505Z,74.70
2017-08-01T22:12:42.411Z,75.00
2017-08-01T22:15:11.375Z,75.00
2017-08-01T22:17:41.122Z,75.30
2017-08-01T22:20:10.094Z,75.20
2017-08-01T22:22:39.050Z,75.80
2017-08-01T22:25:08.814Z,75.50
2017-08-01T22:27:37.817Z,75.40
2017-08-01T22:30:06.779Z,75.30
2017-08-01T22:32:35.851Z,75.10
2017-08-01T22:35:05.567Z,75.20
2017-08-01T22:37:35.731Z,75.00
2017-08-01T22:40:04.718Z,75.80
2017-08-01T22:42:33.678Z,76.20
2017-08-01T22:45:02.622Z,75.60
2017-08-01T22:47:31.616Z,75.60
2017-08-01T22:50:00.557Z,76.80
2017-08-01T22:52:29.644Z,76.40
2017-08-01T22:54:59.392Z,75.50
2017-08-01T22:57:28.474Z,75.50
2017-08-01T22:59:57.433Z,75.20
2017-08-01T23:02:27.170Z,75.40
2017-08-01T23:04:56.133Z,75.40
2017-08-01T23:07:25.934Z,74.20
2017-08-01T23:09:55.693Z,74.40
2017-08-01T23:12:24.867Z,74.40
2017-08-01T23:14:53.865Z,75.20
2017-08-01T23:17:22.844Z,75.60
2017-08-01T23:19:51.839Z,75.10
2017-08-01T23:22:20.797Z,74.10
2017-08-01T23:24:49.757Z,74.80
2017-08-01T23:27:18.732Z,76.00
2017-08-01T23:29:47.701Z,74.90
2017-08-01T23:32:17.477Z,75.10
2017-08-01T23:34:46.444Z,75.10
2017-08-01T23:37:15.552Z,75.50
2017-08-01T23:39:44.513Z,75.80
2017-08-01T23:42:13.482Z,75.30
2017-08-01T23:44:43.240Z,76.00
2017-08-01T23:47:12.185Z,75.20
2017-08-01T23:49:41.928Z,75.50
2017-08-01T23:52:10.887Z,75.40
2017-08-01T23:54:40.626Z,76.00
2017-08-01T23:57:10.519Z,75.00
2017-08-01T23:59:39.494Z,75.00
